sensor_id;sensor_type;location;lat;lon;timestamp;temperature;humidity
24252;DHT22;12380;51.118;4.176;2022-12-10T00:00:45;-1.30;99.90
24252;DHT22;12380;51.118;4.176;2022-12-10T00:03:14;-1.20;99.90
24252;DHT22;12380;51.118;4.176;2022-12-10T00:05:42;-1.30;99.90
24252;DHT22;12380;51.118;4.176;2022-12-10T00:08:11;-1.30;99.90
24252;DHT22;12380;51.118;4.176;2022-12-10T00:10:44;-1.20;99.90
24252;DHT22;12380;51.118;4.176;2022-12-10T00:13:10;-1.20;99.90
24252;DHT22;12380;51.118;4.176;2022-12-10T00:15:43;-1.10;99.90
24252;DHT22;12380;51.118;4.176;2022-12-10T00:18:09;-1.10;99.90
24252;DHT22;12380;51.118;4.176;2022-12-10T00:20:36;-1.00;99.90
24252;DHT22;12380;51.118;4.176;2022-12-10T00:23:01;-1.00;99.90
24252;DHT22;12380;51.118;4.176;2022-12-10T00:25:27;-1.20;99.90
24252;DHT22;12380;51.118;4.176;2022-12-10T00:27:53;-1.30;99.90
24252;DHT22;12380;51.118;4.176;2022-12-10T00:30:19;-1.30;99.90
24252;DHT22;12380;51.118;4.176;2022-12-10T00:32:48;-1.40;99.90
24252;DHT22;12380;51.118;4.176;2022-12-10T00:35:16;-1.40;99.90
24252;DHT22;12380;51.118;4.176;2022-12-10T00:37:41;-1.30;99.90
24252;DHT22;12380;51.118;4.176;2022-12-10T00:40:07;-1.20;99.90
24252;DHT22;12380;51.118;4.176;2022-12-10T00:42:35;-1.10;99.90
24252;DHT22;12380;51.118;4.176;2022-12-10T00:45:02;-0.90;99.90
24252;DHT22;12380;51.118;4.176;2022-12-10T00:47:30;-0.70;99.90
24252;DHT22;12380;51.118;4.176;2022-12-10T00:49:56;-0.90;99.90
24252;DHT22;12380;51.118;4.176;2022-12-10T00:52:24;-0.80;99.90
24252;DHT22;12380;51.118;4.176;2022-12-10T00:54:53;-1.00;99.90
24252;DHT22;12380;51.118;4.176;2022-12-10T00:57:21;-1.00;99.90
24252;DHT22;12380;51.118;4.176;2022-12-10T00:59:47;-1.00;99.90
24252;DHT22;12380;51.118;4.176;2022-12-10T01:02:13;-1.30;99.90
24252;DHT22;12380;51.118;4.176;2022-12-10T01:04:40;-1.30;99.90
24252;DHT22;12380;51.118;4.176;2022-12-10T01:07:08;-1.40;99.90
24252;DHT22;12380;51.118;4.176;2022-12-10T01:09:35;-1.30;99.90
24252;DHT22;12380;51.118;4.176;2022-12-10T01:12:04;-1.10;99.90
24252;DHT22;12380;51.118;4.176;2022-12-10T01:14:32;-1.10;99.90
24252;DHT22;12380;51.118;4.176;2022-12-10T01:17:02;-0.90;99.90
24252;DHT22;12380;51.118;4.176;2022-12-10T01:19:28;-1.10;99.90
24252;DHT22;12380;51.118;4.176;2022-12-10T01:21:57;-1.10;99.90
24252;DHT22;12380;51.118;4.176;2022-12-10T01:24:23;-1.10;99.90
24252;DHT22;12380;51.118;4.176;2022-12-10T01:26:52;-1.10;99.90
24252;DHT22;12380;51.118;4.176;2022-12-10T01:29:17;-1.00;99.90
24252;DHT22;12380;51.118;4.176;2022-12-10T01:31:43;-0.90;99.90
24252;DHT22;12380;51.118;4.176;2022-12-10T01:34:11;-1.10;99.90
24252;DHT22;12380;51.118;4.176;2022-12-10T01:36:43;-1.10;99.90
24252;DHT22;12380;51.118;4.176;2022-12-10T01:39:10;-1.20;99.90
24252;DHT22;12380;51.118;4.176;2022-12-10T01:41:38;-1.20;99.90
24252;DHT22;12380;51.118;4.176;2022-12-10T01:45:00;-1.10;99.90
24252;DHT22;12380;51.118;4.176;2022-12-10T01:46:54;-1.00;99.90
24252;DHT22;12380;51.118;4.176;2022-12-10T01:49:21;-1.00;99.90
24252;DHT22;12380;51.118;4.176;2022-12-10T01:51:48;-1.00;99.90
24252;DHT22;12380;51.118;4.176;2022-12-10T01:54:16;-1.20;99.90
24252;DHT22;12380;51.118;4.176;2022-12-10T01:56:43;-1.20;99.90
24252;DHT22;12380;51.118;4.176;2022-12-10T01:59:09;-1.20;99.90
24252;DHT22;12380;51.118;4.176;2022-12-10T02:09:39;-1.00;99.90
24252;DHT22;12380;51.118;4.176;2022-12-10T02:12:21;-1.00;99.90
24252;DHT22;12380;51.118;4.176;2022-12-10T02:14:59;-1.00;99.90
24252;DHT22;12380;51.118;4.176;2022-12-10T02:17:27;-0.90;99.90
24252;DHT22;12380;51.118;4.176;2022-12-10T02:19:59;-0.70;99.90
24252;DHT22;12380;51.118;4.176;2022-12-10T02:22:28;-0.80;99.90
24252;DHT22;12380;51.118;4.176;2022-12-10T02:24:55;-0.90;99.90
24252;DHT22;12380;51.118;4.176;2022-12-10T02:30:01;-1.00;99.90
24252;DHT22;12380;51.118;4.176;2022-12-10T02:32:31;-0.90;99.90
24252;DHT22;12380;51.118;4.176;2022-12-10T02:34:59;-1.00;99.90
24252;DHT22;12380;51.118;4.176;2022-12-10T02:37:30;-0.80;99.90
24252;DHT22;12380;51.118;4.176;2022-12-10T02:39:58;-0.70;99.90
24252;DHT22;12380;51.118;4.176;2022-12-10T02:42:24;-0.80;99.90
24252;DHT22;12380;51.118;4.176;2022-12-10T02:44:52;-0.70;99.90
24252;DHT22;12380;51.118;4.176;2022-12-10T02:47:18;-0.70;99.90
24252;DHT22;12380;51.118;4.176;2022-12-10T02:49:46;-0.70;99.90
24252;DHT22;12380;51.118;4.176;2022-12-10T02:52:13;-0.70;99.90
24252;DHT22;12380;51.118;4.176;2022-12-10T03:02:13;-0.60;99.90
24252;DHT22;12380;51.118;4.176;2022-12-10T03:07:52;-0.50;99.90
24252;DHT22;12380;51.118;4.176;2022-12-10T03:10:27;-0.60;99.90
24252;DHT22;12380;51.118;4.176;2022-12-10T03:12:57;-0.70;99.90
24252;DHT22;12380;51.118;4.176;2022-12-10T03:15:23;-0.90;99.90
24252;DHT22;12380;51.118;4.176;2022-12-10T03:17:52;-0.90;99.90
24252;DHT22;12380;51.118;4.176;2022-12-10T03:20:19;-0.80;99.90
24252;DHT22;12380;51.118;4.176;2022-12-10T03:22:45;-0.90;99.90
24252;DHT22;12380;51.118;4.176;2022-12-10T03:25:17;-1.10;99.90
24252;DHT22;12380;51.118;4.176;2022-12-10T03:27:44;-1.30;99.90
24252;DHT22;12380;51.118;4.176;2022-12-10T03:30:10;-1.30;99.90
24252;DHT22;12380;51.118;4.176;2022-12-10T03:32:35;-1.40;99.90
24252;DHT22;12380;51.118;4.176;2022-12-10T03:35:04;-1.30;99.90
24252;DHT22;12380;51.118;4.176;2022-12-10T03:37:31;-1.40;99.90
24252;DHT22;12380;51.118;4.176;2022-12-10T03:39:57;-1.30;99.90
24252;DHT22;12380;51.118;4.176;2022-12-10T03:42:23;-1.40;99.90
24252;DHT22;12380;51.118;4.176;2022-12-10T03:44:49;-1.50;99.90
24252;DHT22;12380;51.118;4.176;2022-12-10T03:47:15;-1.40;99.90
24252;DHT22;12380;51.118;4.176;2022-12-10T03:49:41;-1.30;99.90
24252;DHT22;12380;51.118;4.176;2022-12-10T03:52:08;-1.20;99.90
24252;DHT22;12380;51.118;4.176;2022-12-10T03:54:34;-1.00;99.90
24252;DHT22;12380;51.118;4.176;2022-12-10T03:57:02;-1.00;99.90
24252;DHT22;12380;51.118;4.176;2022-12-10T03:59:28;-1.00;99.90
24252;DHT22;12380;51.118;4.176;2022-12-10T04:01:54;-1.00;99.90
24252;DHT22;12380;51.118;4.176;2022-12-10T04:04:20;-0.80;99.90
24252;DHT22;12380;51.118;4.176;2022-12-10T04:06:45;-0.90;99.90
24252;DHT22;12380;51.118;4.176;2022-12-10T04:09:12;-0.90;99.90
24252;DHT22;12380;51.118;4.176;2022-12-10T04:11:38;-0.90;99.90
24252;DHT22;12380;51.118;4.176;2022-12-10T04:14:07;-1.10;99.90
24252;DHT22;12380;51.118;4.176;2022-12-10T04:16:52;-1.20;99.90
24252;DHT22;12380;51.118;4.176;2022-12-10T04:19:21;-1.00;99.90
24252;DHT22;12380;51.118;4.176;2022-12-10T04:21:47;-1.00;99.90
24252;DHT22;12380;51.118;4.176;2022-12-10T04:24:33;-1.00;99.90
24252;DHT22;12380;51.118;4.176;2022-12-10T04:27:24;-0.90;99.90
24252;DHT22;12380;51.118;4.176;2022-12-10T04:29:53;-0.80;99.90
24252;DHT22;12380;51.118;4.176;2022-12-10T04:32:19;-0.90;99.90
24252;DHT22;12380;51.118;4.176;2022-12-10T04:34:45;-1.00;99.90
24252;DHT22;12380;51.118;4.176;2022-12-10T04:37:11;-0.90;99.90
24252;DHT22;12380;51.118;4.176;2022-12-10T04:39:37;-0.90;99.90
24252;DHT22;12380;51.118;4.176;2022-12-10T04:42:05;-1.10;99.90
24252;DHT22;12380;51.118;4.176;2022-12-10T04:44:31;-1.10;99.90
24252;DHT22;12380;51.118;4.176;2022-12-10T04:46:57;-0.90;99.90
24252;DHT22;12380;51.118;4.176;2022-12-10T04:49:23;-1.00;99.90
24252;DHT22;12380;51.118;4.176;2022-12-10T04:51:49;-1.10;99.90
24252;DHT22;12380;51.118;4.176;2022-12-10T04:54:17;-1.20;99.90
24252;DHT22;12380;51.118;4.176;2022-12-10T04:56:44;-1.30;99.90
24252;DHT22;12380;51.118;4.176;2022-12-10T04:59:10;-1.20;99.90
24252;DHT22;12380;51.118;4.176;2022-12-10T05:01:38;-1.10;99.90
24252;DHT22;12380;51.118;4.176;2022-12-10T05:04:05;-1.10;99.90
24252;DHT22;12380;51.118;4.176;2022-12-10T05:06:31;-1.20;99.90
24252;DHT22;12380;51.118;4.176;2022-12-10T05:08:57;-1.20;99.90
24252;DHT22;12380;51.118;4.176;2022-12-10T05:11:25;-1.10;99.90
24252;DHT22;12380;51.118;4.176;2022-12-10T05:13:52;-1.20;99.90
24252;DHT22;12380;51.118;4.176;2022-12-10T05:16:19;-1.10;99.90
24252;DHT22;12380;51.118;4.176;2022-12-10T05:18:45;-1.30;99.90
24252;DHT22;12380;51.118;4.176;2022-12-10T05:21:12;-1.40;99.90
24252;DHT22;12380;51.118;4.176;2022-12-10T05:23:40;-1.40;99.90
24252;DHT22;12380;51.118;4.176;2022-12-10T05:26:10;-1.30;99.90
24252;DHT22;12380;51.118;4.176;2022-12-10T05:28:40;-1.30;99.90
24252;DHT22;12380;51.118;4.176;2022-12-10T05:31:16;-1.20;99.90
24252;DHT22;12380;51.118;4.176;2022-12-10T05:33:42;-1.10;99.90
24252;DHT22;12380;51.118;4.176;2022-12-10T05:36:09;-1.20;99.90
24252;DHT22;12380;51.118;4.176;2022-12-10T05:38:35;-1.20;99.90
24252;DHT22;12380;51.118;4.176;2022-12-10T05:41:04;-1.30;99.90
24252;DHT22;12380;51.118;4.176;2022-12-10T05:43:30;-1.30;99.90
24252;DHT22;12380;51.118;4.176;2022-12-10T05:46:02;-1.30;99.90
24252;DHT22;12380;51.118;4.176;2022-12-10T05:48:28;-1.10;99.90
24252;DHT22;12380;51.118;4.176;2022-12-10T05:50:54;-1.10;99.90
24252;DHT22;12380;51.118;4.176;2022-12-10T05:53:23;-1.10;99.90
24252;DHT22;12380;51.118;4.176;2022-12-10T05:55:49;-1.10;99.90
24252;DHT22;12380;51.118;4.176;2022-12-10T05:58:16;-1.10;99.90
24252;DHT22;12380;51.118;4.176;2022-12-10T06:00:42;-1.10;99.90
24252;DHT22;12380;51.118;4.176;2022-12-10T06:03:09;-1.30;99.90
24252;DHT22;12380;51.118;4.176;2022-12-10T06:05:38;-1.20;99.90
24252;DHT22;12380;51.118;4.176;2022-12-10T06:08:07;-1.10;99.90
24252;DHT22;12380;51.118;4.176;2022-12-10T06:10:35;-1.10;99.90
24252;DHT22;12380;51.118;4.176;2022-12-10T06:13:04;-1.10;99.90
24252;DHT22;12380;51.118;4.176;2022-12-10T06:15:30;-1.10;99.90
24252;DHT22;12380;51.118;4.176;2022-12-10T06:17:56;-1.10;99.90
24252;DHT22;12380;51.118;4.176;2022-12-10T06:20:22;-1.20;99.90
24252;DHT22;12380;51.118;4.176;2022-12-10T06:22:48;-1.00;99.90
24252;DHT22;12380;51.118;4.176;2022-12-10T06:25:14;-0.90;99.90
24252;DHT22;12380;51.118;4.176;2022-12-10T06:27:39;-1.20;99.90
24252;DHT22;12380;51.118;4.176;2022-12-10T06:30:05;-1.20;99.90
24252;DHT22;12380;51.118;4.176;2022-12-10T06:32:31;-1.30;99.90
24252;DHT22;12380;51.118;4.176;2022-12-10T06:34:56;-1.20;99.90
24252;DHT22;12380;51.118;4.176;2022-12-10T06:37:22;-1.20;99.90
24252;DHT22;12380;51.118;4.176;2022-12-10T06:39:50;-1.30;99.90
24252;DHT22;12380;51.118;4.176;2022-12-10T06:42:19;-1.30;99.90
24252;DHT22;12380;51.118;4.176;2022-12-10T06:44:45;-1.30;99.90
24252;DHT22;12380;51.118;4.176;2022-12-10T06:47:11;-1.20;99.90
24252;DHT22;12380;51.118;4.176;2022-12-10T06:49:37;-1.20;99.90
24252;DHT22;12380;51.118;4.176;2022-12-10T06:52:03;-1.10;99.90
24252;DHT22;12380;51.118;4.176;2022-12-10T06:54:31;-1.20;99.90
24252;DHT22;12380;51.118;4.176;2022-12-10T06:57:01;-1.30;99.90
24252;DHT22;12380;51.118;4.176;2022-12-10T06:59:27;-1.20;99.90
24252;DHT22;12380;51.118;4.176;2022-12-10T07:01:54;-1.30;99.90
24252;DHT22;12380;51.118;4.176;2022-12-10T07:04:20;-1.00;99.90
24252;DHT22;12380;51.118;4.176;2022-12-10T07:06:45;-1.10;99.90
24252;DHT22;12380;51.118;4.176;2022-12-10T07:09:12;-1.10;99.90
24252;DHT22;12380;51.118;4.176;2022-12-10T07:11:38;-1.20;99.90
24252;DHT22;12380;51.118;4.176;2022-12-10T07:14:04;-1.20;99.90
24252;DHT22;12380;51.118;4.176;2022-12-10T07:16:32;-1.20;99.90
24252;DHT22;12380;51.118;4.176;2022-12-10T07:18:59;-1.20;99.90
24252;DHT22;12380;51.118;4.176;2022-12-10T07:21:26;-1.20;99.90
24252;DHT22;12380;51.118;4.176;2022-12-10T07:23:54;-1.10;99.90
24252;DHT22;12380;51.118;4.176;2022-12-10T07:26:21;-1.00;99.90
24252;DHT22;12380;51.118;4.176;2022-12-10T07:28:49;-0.90;99.90
24252;DHT22;12380;51.118;4.176;2022-12-10T07:31:16;-0.90;99.90
24252;DHT22;12380;51.118;4.176;2022-12-10T07:33:42;-1.20;99.90
24252;DHT22;12380;51.118;4.176;2022-12-10T07:36:10;-1.30;99.90
24252;DHT22;12380;51.118;4.176;2022-12-10T07:38:37;-1.30;99.90
24252;DHT22;12380;51.118;4.176;2022-12-10T07:41:06;-1.40;99.90
24252;DHT22;12380;51.118;4.176;2022-12-10T07:43:37;-1.40;99.90
24252;DHT22;12380;51.118;4.176;2022-12-10T07:46:04;-1.50;99.90
24252;DHT22;12380;51.118;4.176;2022-12-10T07:48:30;-1.50;99.90
24252;DHT22;12380;51.118;4.176;2022-12-10T07:50:58;-1.40;99.90
24252;DHT22;12380;51.118;4.176;2022-12-10T07:53:26;-1.30;99.90
24252;DHT22;12380;51.118;4.176;2022-12-10T07:55:52;-1.30;99.90
24252;DHT22;12380;51.118;4.176;2022-12-10T07:58:17;-1.40;99.90
24252;DHT22;12380;51.118;4.176;2022-12-10T08:00:45;-1.50;99.90
24252;DHT22;12380;51.118;4.176;2022-12-10T08:03:10;-1.50;99.90
24252;DHT22;12380;51.118;4.176;2022-12-10T08:05:38;-1.40;99.90
24252;DHT22;12380;51.118;4.176;2022-12-10T08:08:03;-1.40;99.90
24252;DHT22;12380;51.118;4.176;2022-12-10T08:10:29;-1.40;99.90
24252;DHT22;12380;51.118;4.176;2022-12-10T08:12:55;-1.30;99.90
24252;DHT22;12380;51.118;4.176;2022-12-10T08:15:20;-1.30;99.90
24252;DHT22;12380;51.118;4.176;2022-12-10T08:17:46;-1.30;99.90
24252;DHT22;12380;51.118;4.176;2022-12-10T08:20:14;-1.30;99.90
24252;DHT22;12380;51.118;4.176;2022-12-10T08:22:42;-1.20;99.90
24252;DHT22;12380;51.118;4.176;2022-12-10T08:25:08;-1.20;99.90
24252;DHT22;12380;51.118;4.176;2022-12-10T08:27:34;-1.10;99.90
24252;DHT22;12380;51.118;4.176;2022-12-10T08:30:02;-1.00;99.90
24252;DHT22;12380;51.118;4.176;2022-12-10T08:32:31;-1.00;99.90
24252;DHT22;12380;51.118;4.176;2022-12-10T08:34:56;-1.10;99.90
24252;DHT22;12380;51.118;4.176;2022-12-10T08:37:22;-1.20;99.90
24252;DHT22;12380;51.118;4.176;2022-12-10T08:39:49;-1.20;99.90
24252;DHT22;12380;51.118;4.176;2022-12-10T08:42:15;-1.10;99.90
24252;DHT22;12380;51.118;4.176;2022-12-10T08:44:41;-1.10;99.90
24252;DHT22;12380;51.118;4.176;2022-12-10T08:47:07;-1.10;99.90
24252;DHT22;12380;51.118;4.176;2022-12-10T08:49:32;-1.20;99.90
24252;DHT22;12380;51.118;4.176;2022-12-10T08:51:58;-1.10;99.90
24252;DHT22;12380;51.118;4.176;2022-12-10T08:54:24;-1.20;99.90
24252;DHT22;12380;51.118;4.176;2022-12-10T08:56:51;-1.20;99.90
24252;DHT22;12380;51.118;4.176;2022-12-10T08:59:16;-1.10;99.90
24252;DHT22;12380;51.118;4.176;2022-12-10T09:01:42;-1.10;99.90
24252;DHT22;12380;51.118;4.176;2022-12-10T09:04:10;-1.10;99.90
24252;DHT22;12380;51.118;4.176;2022-12-10T09:06:37;-1.00;99.90
24252;DHT22;12380;51.118;4.176;2022-12-10T09:09:04;-0.90;99.90
24252;DHT22;12380;51.118;4.176;2022-12-10T09:11:32;-0.90;99.90
24252;DHT22;12380;51.118;4.176;2022-12-10T09:14:00;-0.90;99.90
24252;DHT22;12380;51.118;4.176;2022-12-10T09:16:35;-0.80;99.90
24252;DHT22;12380;51.118;4.176;2022-12-10T09:19:03;-0.80;99.90
24252;DHT22;12380;51.118;4.176;2022-12-10T09:21:32;-0.80;99.90
24252;DHT22;12380;51.118;4.176;2022-12-10T09:24:00;-0.90;99.90
24252;DHT22;12380;51.118;4.176;2022-12-10T09:26:26;-0.80;99.90
24252;DHT22;12380;51.118;4.176;2022-12-10T09:28:51;-0.80;99.90
24252;DHT22;12380;51.118;4.176;2022-12-10T09:31:20;-0.80;99.90
24252;DHT22;12380;51.118;4.176;2022-12-10T09:33:47;-0.80;99.90
24252;DHT22;12380;51.118;4.176;2022-12-10T09:36:16;-0.80;99.90
24252;DHT22;12380;51.118;4.176;2022-12-10T09:38:43;-0.80;99.90
24252;DHT22;12380;51.118;4.176;2022-12-10T09:43:54;-0.70;99.90
24252;DHT22;12380;51.118;4.176;2022-12-10T09:51:28;-0.80;99.90
24252;DHT22;12380;51.118;4.176;2022-12-10T09:53:55;-0.70;99.90
24252;DHT22;12380;51.118;4.176;2022-12-10T09:56:31;-0.60;99.90
24252;DHT22;12380;51.118;4.176;2022-12-10T09:58:59;-0.60;99.90
24252;DHT22;12380;51.118;4.176;2022-12-10T10:01:29;-0.40;99.90
24252;DHT22;12380;51.118;4.176;2022-12-10T10:03:56;-0.30;99.90
24252;DHT22;12380;51.118;4.176;2022-12-10T10:06:25;-0.30;99.90
24252;DHT22;12380;51.118;4.176;2022-12-10T10:09:12;-0.30;99.90
24252;DHT22;12380;51.118;4.176;2022-12-10T10:11:41;-0.30;99.90
24252;DHT22;12380;51.118;4.176;2022-12-10T10:14:12;-0.30;99.90
24252;DHT22;12380;51.118;4.176;2022-12-10T10:16:42;-0.30;99.90
24252;DHT22;12380;51.118;4.176;2022-12-10T10:19:14;-0.30;99.90
24252;DHT22;12380;51.118;4.176;2022-12-10T10:21:49;-0.10;99.90
24252;DHT22;12380;51.118;4.176;2022-12-10T10:24:20;-0.10;99.90
24252;DHT22;12380;51.118;4.176;2022-12-10T10:26:51;-0.10;99.90
24252;DHT22;12380;51.118;4.176;2022-12-10T10:29:18;-0.10;99.90
24252;DHT22;12380;51.118;4.176;2022-12-10T10:31:45;-0.10;99.90
24252;DHT22;12380;51.118;4.176;2022-12-10T10:34:22;-0.10;99.90
24252;DHT22;12380;51.118;4.176;2022-12-10T10:36:56;0.10;99.90
24252;DHT22;12380;51.118;4.176;2022-12-10T10:39:32;0.20;99.90
24252;DHT22;12380;51.118;4.176;2022-12-10T10:42:00;0.10;99.90
24252;DHT22;12380;51.118;4.176;2022-12-10T10:44:36;0.00;99.90
24252;DHT22;12380;51.118;4.176;2022-12-10T10:47:03;0.10;99.90
24252;DHT22;12380;51.118;4.176;2022-12-10T10:49:51;0.10;99.90
24252;DHT22;12380;51.118;4.176;2022-12-10T10:52:17;0.00;99.90
24252;DHT22;12380;51.118;4.176;2022-12-10T10:54:45;0.10;99.90
24252;DHT22;12380;51.118;4.176;2022-12-10T10:57:12;0.30;99.90
24252;DHT22;12380;51.118;4.176;2022-12-10T10:59:38;0.40;99.90
24252;DHT22;12380;51.118;4.176;2022-12-10T11:04:37;0.40;99.90
24252;DHT22;12380;51.118;4.176;2022-12-10T11:07:04;0.50;99.90
24252;DHT22;12380;51.118;4.176;2022-12-10T11:09:34;0.50;99.90
24252;DHT22;12380;51.118;4.176;2022-12-10T11:12:05;0.60;99.90
24252;DHT22;12380;51.118;4.176;2022-12-10T11:14:40;0.60;99.90
24252;DHT22;12380;51.118;4.176;2022-12-10T11:19:36;0.70;99.90
24252;DHT22;12380;51.118;4.176;2022-12-10T11:22:15;0.70;99.90
24252;DHT22;12380;51.118;4.176;2022-12-10T11:24:40;0.50;99.90
24252;DHT22;12380;51.118;4.176;2022-12-10T11:27:09;0.50;99.90
24252;DHT22;12380;51.118;4.176;2022-12-10T11:37:34;0.50;99.90
24252;DHT22;12380;51.118;4.176;2022-12-10T11:43:01;0.70;99.90
24252;DHT22;12380;51.118;4.176;2022-12-10T11:51:04;0.80;99.90
24252;DHT22;12380;51.118;4.176;2022-12-10T12:06:43;1.10;99.90
24252;DHT22;12380;51.118;4.176;2022-12-10T12:11:55;1.10;99.90
24252;DHT22;12380;51.118;4.176;2022-12-10T12:14:36;1.10;99.90
24252;DHT22;12380;51.118;4.176;2022-12-10T12:19:44;1.20;99.90
24252;DHT22;12380;51.118;4.176;2022-12-10T12:24:47;1.20;99.90
24252;DHT22;12380;51.118;4.176;2022-12-10T12:29:57;1.30;99.90
24252;DHT22;12380;51.118;4.176;2022-12-10T12:32:28;1.30;99.90
24252;DHT22;12380;51.118;4.176;2022-12-10T12:34:59;1.00;99.90
24252;DHT22;12380;51.118;4.176;2022-12-10T12:37:28;1.10;99.90
24252;DHT22;12380;51.118;4.176;2022-12-10T12:40:13;1.30;99.90
24252;DHT22;12380;51.118;4.176;2022-12-10T12:42:47;1.20;99.90
24252;DHT22;12380;51.118;4.176;2022-12-10T12:45:28;1.30;99.90
24252;DHT22;12380;51.118;4.176;2022-12-10T12:50:30;1.30;99.90
24252;DHT22;12380;51.118;4.176;2022-12-10T12:53:00;1.20;99.90
24252;DHT22;12380;51.118;4.176;2022-12-10T12:57:58;1.40;99.90
24252;DHT22;12380;51.118;4.176;2022-12-10T13:00:29;1.40;99.90
24252;DHT22;12380;51.118;4.176;2022-12-10T13:05:38;1.50;99.90
24252;DHT22;12380;51.118;4.176;2022-12-10T13:10:59;1.40;99.90
24252;DHT22;12380;51.118;4.176;2022-12-10T13:13:29;1.40;99.90
24252;DHT22;12380;51.118;4.176;2022-12-10T13:15:55;1.20;99.90
24252;DHT22;12380;51.118;4.176;2022-12-10T13:18:33;1.30;99.90
24252;DHT22;12380;51.118;4.176;2022-12-10T13:24:43;1.30;99.90
24252;DHT22;12380;51.118;4.176;2022-12-10T13:26:33;1.30;99.90
24252;DHT22;12380;51.118;4.176;2022-12-10T13:29:23;1.40;99.90
24252;DHT22;12380;51.118;4.176;2022-12-10T13:31:56;1.40;99.90
24252;DHT22;12380;51.118;4.176;2022-12-10T13:34:23;1.50;99.90
24252;DHT22;12380;51.118;4.176;2022-12-10T13:37:37;1.60;99.90
24252;DHT22;12380;51.118;4.176;2022-12-10T13:39:47;1.50;99.90
24252;DHT22;12380;51.118;4.176;2022-12-10T13:45:01;1.60;99.90
24252;DHT22;12380;51.118;4.176;2022-12-10T13:50:06;1.60;99.90
24252;DHT22;12380;51.118;4.176;2022-12-10T14:07:33;1.50;99.90
24252;DHT22;12380;51.118;4.176;2022-12-10T14:10:00;1.60;99.90
24252;DHT22;12380;51.118;4.176;2022-12-10T14:12:31;1.60;99.90
24252;DHT22;12380;51.118;4.176;2022-12-10T14:15:01;1.80;99.90
24252;DHT22;12380;51.118;4.176;2022-12-10T14:17:36;1.80;99.90
24252;DHT22;12380;51.118;4.176;2022-12-10T14:20:03;1.70;99.90
24252;DHT22;12380;51.118;4.176;2022-12-10T14:22:34;1.70;99.90
24252;DHT22;12380;51.118;4.176;2022-12-10T14:25:03;1.60;99.90
24252;DHT22;12380;51.118;4.176;2022-12-10T14:27:32;1.50;99.90
24252;DHT22;12380;51.118;4.176;2022-12-10T14:29:59;1.60;99.90
24252;DHT22;12380;51.118;4.176;2022-12-10T14:32:30;1.50;99.90
24252;DHT22;12380;51.118;4.176;2022-12-10T14:34:59;1.50;99.90
24252;DHT22;12380;51.118;4.176;2022-12-10T14:37:25;1.60;99.90
24252;DHT22;12380;51.118;4.176;2022-12-10T14:39:52;1.70;99.90
24252;DHT22;12380;51.118;4.176;2022-12-10T14:42:18;1.90;99.90
24252;DHT22;12380;51.118;4.176;2022-12-10T14:44:44;1.90;99.90
24252;DHT22;12380;51.118;4.176;2022-12-10T14:49:43;1.60;99.90
24252;DHT22;12380;51.118;4.176;2022-12-10T14:54:39;1.80;99.90
24252;DHT22;12380;51.118;4.176;2022-12-10T14:57:06;1.90;99.90
24252;DHT22;12380;51.118;4.176;2022-12-10T14:59:37;2.00;99.90
24252;DHT22;12380;51.118;4.176;2022-12-10T15:02:15;2.20;99.90
24252;DHT22;12380;51.118;4.176;2022-12-10T15:04:43;2.10;99.90
24252;DHT22;12380;51.118;4.176;2022-12-10T15:07:14;2.00;99.90
24252;DHT22;12380;51.118;4.176;2022-12-10T15:09:43;1.90;99.90
24252;DHT22;12380;51.118;4.176;2022-12-10T15:14:56;1.90;99.90
24252;DHT22;12380;51.118;4.176;2022-12-10T15:17:38;1.90;99.90
24252;DHT22;12380;51.118;4.176;2022-12-10T15:20:18;2.00;99.90
24252;DHT22;12380;51.118;4.176;2022-12-10T15:22:44;1.90;99.90
24252;DHT22;12380;51.118;4.176;2022-12-10T15:25:20;1.90;99.90
24252;DHT22;12380;51.118;4.176;2022-12-10T15:27:55;2.00;99.90
24252;DHT22;12380;51.118;4.176;2022-12-10T15:30:24;2.00;99.90
24252;DHT22;12380;51.118;4.176;2022-12-10T15:32:57;1.90;99.90
24252;DHT22;12380;51.118;4.176;2022-12-10T15:35:23;1.90;99.90
24252;DHT22;12380;51.118;4.176;2022-12-10T15:37:49;1.70;99.90
24252;DHT22;12380;51.118;4.176;2022-12-10T15:40:23;1.80;99.90
24252;DHT22;12380;51.118;4.176;2022-12-10T15:42:50;1.80;99.90
24252;DHT22;12380;51.118;4.176;2022-12-10T15:47:43;1.80;99.90
24252;DHT22;12380;51.118;4.176;2022-12-10T15:50:09;1.80;99.90
24252;DHT22;12380;51.118;4.176;2022-12-10T15:52:35;1.90;99.90
24252;DHT22;12380;51.118;4.176;2022-12-10T15:55:00;2.10;99.90
24252;DHT22;12380;51.118;4.176;2022-12-10T15:57:29;2.00;99.90
24252;DHT22;12380;51.118;4.176;2022-12-10T15:59:59;2.10;99.90
24252;DHT22;12380;51.118;4.176;2022-12-10T16:02:34;2.10;99.90
24252;DHT22;12380;51.118;4.176;2022-12-10T16:05:01;2.00;99.90
24252;DHT22;12380;51.118;4.176;2022-12-10T16:07:26;2.00;99.90
24252;DHT22;12380;51.118;4.176;2022-12-10T16:09:52;2.00;99.90
24252;DHT22;12380;51.118;4.176;2022-12-10T16:12:19;2.00;99.90
24252;DHT22;12380;51.118;4.176;2022-12-10T16:14:47;2.00;99.90
24252;DHT22;12380;51.118;4.176;2022-12-10T16:17:13;2.10;99.90
24252;DHT22;12380;51.118;4.176;2022-12-10T16:19:38;2.10;99.90
24252;DHT22;12380;51.118;4.176;2022-12-10T16:22:04;1.90;99.90
24252;DHT22;12380;51.118;4.176;2022-12-10T16:24:31;1.90;99.90
24252;DHT22;12380;51.118;4.176;2022-12-10T16:26:56;2.00;99.90
24252;DHT22;12380;51.118;4.176;2022-12-10T16:29:22;1.80;99.90
24252;DHT22;12380;51.118;4.176;2022-12-10T16:31:50;1.70;99.90
24252;DHT22;12380;51.118;4.176;2022-12-10T16:34:15;1.70;99.90
24252;DHT22;12380;51.118;4.176;2022-12-10T16:36:41;1.70;99.90
24252;DHT22;12380;51.118;4.176;2022-12-10T16:39:06;1.90;99.90
24252;DHT22;12380;51.118;4.176;2022-12-10T16:41:32;1.90;99.90
24252;DHT22;12380;51.118;4.176;2022-12-10T16:43:58;1.90;99.90
24252;DHT22;12380;51.118;4.176;2022-12-10T16:46:23;1.90;99.90
24252;DHT22;12380;51.118;4.176;2022-12-10T16:48:49;1.80;99.90
24252;DHT22;12380;51.118;4.176;2022-12-10T16:51:26;1.90;99.90
24252;DHT22;12380;51.118;4.176;2022-12-10T16:53:58;2.00;99.90
24252;DHT22;12380;51.118;4.176;2022-12-10T16:56:26;1.90;99.90
24252;DHT22;12380;51.118;4.176;2022-12-10T16:58:51;1.90;99.90
24252;DHT22;12380;51.118;4.176;2022-12-10T17:01:21;1.90;99.90
24252;DHT22;12380;51.118;4.176;2022-12-10T17:03:47;1.90;99.90
24252;DHT22;12380;51.118;4.176;2022-12-10T17:06:17;1.70;99.90
24252;DHT22;12380;51.118;4.176;2022-12-10T17:08:43;1.80;99.90
24252;DHT22;12380;51.118;4.176;2022-12-10T17:11:19;1.80;99.90
24252;DHT22;12380;51.118;4.176;2022-12-10T17:16:43;1.60;99.90
24252;DHT22;12380;51.118;4.176;2022-12-10T17:19:11;1.60;99.90
24252;DHT22;12380;51.118;4.176;2022-12-10T17:21:37;1.70;99.90
24252;DHT22;12380;51.118;4.176;2022-12-10T17:24:03;1.70;99.90
24252;DHT22;12380;51.118;4.176;2022-12-10T17:26:30;1.70;99.90
24252;DHT22;12380;51.118;4.176;2022-12-10T17:28:58;1.70;99.90
24252;DHT22;12380;51.118;4.176;2022-12-10T17:31:25;1.70;99.90
24252;DHT22;12380;51.118;4.176;2022-12-10T17:33:53;1.70;99.90
24252;DHT22;12380;51.118;4.176;2022-12-10T17:36:18;1.70;99.90
24252;DHT22;12380;51.118;4.176;2022-12-10T17:38:44;1.70;99.90
24252;DHT22;12380;51.118;4.176;2022-12-10T17:41:10;1.70;99.90
24252;DHT22;12380;51.118;4.176;2022-12-10T17:43:36;1.70;99.90
24252;DHT22;12380;51.118;4.176;2022-12-10T17:46:02;1.80;99.90